Time;durP1;ratioP1;P1;durP2;ratioP2;P2;SDS_P1;SDS_P2;PMS_P1;PMS_P2;Temp;Humidity;BMP_temperature;BMP_pressure;BME280_temperature;BME280_humidity;BME280_pressure;Samples;Min_cycle;Max_cycle;Signal;HPM_P1;HPM_P2
2024/02/29 00:01:36;;;;;;;0.10;0.10;;;;;;;9.44;100.00;99745.78;6220689;23;20008;-73
2024/02/29 00:04:01;;;;;;;0.00;0.00;;;;;;;9.41;100.00;99746.34;6219999;23;20399;-74
2024/02/29 00:06:27;;;;;;;0.00;0.00;;;;;;;9.49;100.00;99745.78;6194675;23;20423;-73
2024/02/29 00:08:52;;;;;;;0.00;0.00;;;;;;;9.47;100.00;99747.97;6169094;23;20011;-72
2024/02/29 00:11:19;;;;;;;0.00;0.00;;;;;;;9.26;100.00;99709.78;6221142;23;20042;-73
2024/02/29 00:13:45;;;;;;;0.00;0.00;;;;;;;9.47;100.00;99737.06;6248593;23;20012;-74
2024/02/29 00:16:11;;;;;;;0.00;0.00;;;;;;;9.37;100.00;99715.22;6196676;22;20086;-73
2024/02/29 00:18:37;;;;;;;0.00;0.00;;;;;;;9.42;100.00;99717.97;6249503;22;20004;-74
2024/02/29 00:21:03;;;;;;;0.10;0.10;;;;;;;9.52;100.00;99739.78;6171372;23;19992;-73
2024/02/29 00:23:28;;;;;;;0.10;0.10;;;;;;;9.48;100.00;99727.78;6223968;23;20008;-73
2024/02/29 00:25:54;;;;;;;0.00;0.00;;;;;;;9.44;100.00;99716.56;6171230;23;20023;-73
2024/02/29 00:28:24;;;;;;;0.00;0.00;;;;;;;9.33;100.00;99692.31;6170733;23;20012;-74
2024/02/29 00:30:49;;;;;;;0.00;0.00;;;;;;;9.48;100.00;99705.94;6248158;23;20008;-74
2024/02/29 00:33:15;;;;;;;0.00;0.00;;;;;;;9.57;100.00;99712.47;6246539;23;20015;-74
2024/02/29 00:35:40;;;;;;;0.00;0.00;;;;;;;9.52;100.00;99708.94;6223049;23;20004;-74
2024/02/29 00:38:16;;;;;;;0.00;0.00;;;;;;;9.47;100.00;99690.66;6221829;23;20008;-73
2024/02/29 00:40:41;;;;;;;0.00;0.00;;;;;;;9.28;100.00;99657.69;6220838;23;20011;-73
2024/02/29 00:43:08;;;;;;;0.10;0.10;;;;;;;9.58;100.00;99705.91;6195820;23;20020;-73
2024/02/29 00:45:34;;;;;;;0.00;0.00;;;;;;;9.54;100.00;99693.91;6197591;23;19992;-73
2024/02/29 00:47:59;;;;;;;0.00;0.00;;;;;;;9.65;100.00;99702.06;6220253;23;20015;-73
2024/02/29 00:50:27;;;;;;;0.10;0.10;;;;;;;9.64;100.00;99686.78;6247221;23;20018;-74
2024/02/29 00:52:53;;;;;;;0.00;0.00;;;;;;;9.66;100.00;99679.16;6220303;23;20043;-73
2024/02/29 00:55:18;;;;;;;0.00;0.00;;;;;;;9.65;100.00;99681.06;6197143;23;20032;-74
2024/02/29 00:57:44;;;;;;;0.08;0.08;;;;;;;9.59;100.00;99672.06;6218045;23;20008;-75
2024/02/29 01:00:13;;;;;;;0.00;0.00;;;;;;;9.70;100.00;99685.69;6197915;23;20011;-74
2024/02/29 01:02:38;;;;;;;0.00;0.00;;;;;;;9.70;100.00;99680.22;6222156;23;20086;-73
2024/02/29 01:05:05;;;;;;;0.00;0.00;;;;;;;9.64;100.00;99670.41;6195960;23;20087;-73
2024/02/29 01:07:30;;;;;;;0.00;0.00;;;;;;;9.66;100.00;99685.41;6221841;23;20039;-75
2024/02/29 01:09:58;;;;;;;0.00;0.00;;;;;;;9.70;100.00;99677.50;6173151;23;20059;-75
2024/02/29 01:12:24;;;;;;;0.10;0.10;;;;;;;9.69;100.00;99664.94;6172108;22;20000;-74
2024/02/29 01:14:49;;;;;;;0.00;0.00;;;;;;;9.71;100.00;99660.00;6247381;23;20000;-74
2024/02/29 01:17:17;;;;;;;0.00;0.00;;;;;;;9.68;100.00;99647.75;6189658;23;20477;-77
2024/02/29 01:19:42;;;;;;;0.00;0.00;;;;;;;9.65;100.00;99633.81;6217482;23;20028;-74
2024/02/29 01:22:09;;;;;;;0.00;0.00;;;;;;;9.74;100.00;99646.63;6193921;23;20012;-75
2024/02/29 01:24:34;;;;;;;0.10;0.10;;;;;;;9.59;100.00;99624.84;6220372;23;20016;-75
2024/02/29 01:27:00;;;;;;;0.00;0.00;;;;;;;9.63;100.00;99636.84;6172659;23;20007;-75
2024/02/29 01:29:25;;;;;;;0.00;0.00;;;;;;;9.70;100.00;99636.56;6196476;23;20023;-76
2024/02/29 01:31:50;;;;;;;0.00;0.00;;;;;;;9.73;100.00;99647.72;6249305;23;19992;-74
2024/02/29 01:34:17;;;;;;;0.00;0.00;;;;;;;9.68;100.00;99638.72;6220092;23;20024;-74
2024/02/29 01:36:45;;;;;;;0.00;0.00;;;;;;;9.56;100.00;99609.84;6247529;23;20091;-74
2024/02/29 01:39:19;;;;;;;0.08;0.08;;;;;;;9.56;100.00;99609.84;6246641;23;20105;-75
2024/02/29 01:41:47;;;;;;;0.00;0.00;;;;;;;9.56;100.00;99607.13;6220861;23;20004;-75
2024/02/29 01:44:12;;;;;;;0.00;0.00;;;;;;;9.60;100.00;99615.56;6195488;23;20065;-74
2024/02/29 01:46:38;;;;;;;0.10;0.10;;;;;;;9.67;100.00;99618.00;6219224;23;20008;-74
2024/02/29 01:49:04;;;;;;;0.00;0.00;;;;;;;9.45;100.00;99583.69;6219427;23;20008;-74
2024/02/29 01:51:31;;;;;;;0.00;0.00;;;;;;;9.65;100.00;99603.78;6220592;23;20482;-74
2024/02/29 01:53:56;;;;;;;0.00;0.00;;;;;;;9.64;100.00;99599.44;6219233;23;20000;-73
2024/02/29 01:56:22;;;;;;;0.00;0.00;;;;;;;9.68;100.00;99603.22;6220167;23;20015;-74
2024/02/29 01:58:48;;;;;;;0.00;0.00;;;;;;;9.68;100.00;99601.34;6246392;23;20058;-74
2024/02/29 02:01:14;;;;;;;0.10;0.10;;;;;;;9.59;100.00;99582.00;6194884;23;20036;-73
2024/02/29 02:03:42;;;;;;;0.00;0.00;;;;;;;9.68;100.00;99587.69;6196601;23;20083;-74
2024/02/29 02:06:08;;;;;;;0.00;0.00;;;;;;;9.70;100.00;99588.22;6192345;23;20012;-75
2024/02/29 02:08:36;;;;;;;0.00;0.00;;;;;;;9.61;100.00;99568.06;6220595;23;20028;-74
2024/02/29 02:11:05;;;;;;;0.10;0.10;;;;;;;9.67;100.00;99561.47;6195817;23;20014;-74
2024/02/29 02:13:30;;;;;;;0.00;0.00;;;;;;;9.68;100.00;99568.59;6220496;23;20073;-74
2024/02/29 02:15:56;;;;;;;0.00;0.00;;;;;;;9.53;100.00;99544.88;6194777;23;20115;-74
2024/02/29 02:18:22;;;;;;;0.00;0.00;;;;;;;9.68;100.00;99571.31;6171919;23;20448;-74
2024/02/29 02:20:49;;;;;;;0.00;0.00;;;;;;;9.60;100.00;99567.22;6218214;23;20455;-73
2024/02/29 02:23:15;;;;;;;0.00;0.00;;;;;;;9.58;100.00;99563.19;6217503;23;20000;-74
2024/02/29 02:25:41;;;;;;;0.00;0.00;;;;;;;9.51;100.00;99559.94;6165735;23;20047;-75
2024/02/29 02:28:07;;;;;;;0.00;0.00;;;;;;;9.46;100.00;99555.28;6194312;23;20009;-73
2024/02/29 02:30:33;;;;;;;0.00;0.00;;;;;;;9.43;100.00;99551.22;6140604;23;20462;-74
2024/02/29 02:32:58;;;;;;;0.00;0.00;;;;;;;9.40;100.00;99540.03;6162966;23;20011;-74
2024/02/29 02:35:24;;;;;;;0.00;0.00;;;;;;;9.25;100.00;99524.56;6189401;23;20379;-75
2024/02/29 02:37:49;;;;;;;0.00;0.00;;;;;;;9.36;100.00;99541.69;6165512;23;20046;-74
2024/02/29 02:40:15;;;;;;;0.00;0.00;;;;;;;9.33;100.00;99529.44;6186735;23;20028;-74
2024/02/29 02:42:40;;;;;;;0.00;0.00;;;;;;;9.26;100.00;99513.38;6189512;23;20059;-73
2024/02/29 02:45:07;;;;;;;0.00;0.00;;;;;;;9.32;100.00;99516.09;6163378;23;20043;-74
2024/02/29 02:47:32;;;;;;;0.00;0.00;;;;;;;9.31;100.00;99498.88;6189148;23;20036;-74
2024/02/29 02:49:58;;;;;;;0.00;0.00;;;;;;;9.38;100.00;99509.50;6165848;23;20071;-73
2024/02/29 02:52:23;;;;;;;0.10;0.10;;;;;;;9.30;100.00;99497.28;6160691;23;20009;-80
2024/02/29 02:54:49;;;;;;;0.00;0.00;;;;;;;9.32;100.00;99488.81;6169545;23;20020;-80
2024/02/29 02:57:14;;;;;;;0.00;0.00;;;;;;;9.43;100.00;99501.28;6190859;23;20004;-79
2024/02/29 02:59:40;;;;;;;0.08;0.08;;;;;;;9.42;100.00;99499.66;6194445;22;20012;-80
2024/02/29 03:02:05;;;;;;;0.10;0.10;;;;;;;9.41;100.00;99492.56;6222917;23;20651;-80
2024/02/29 03:04:31;;;;;;;0.00;0.00;;;;;;;9.45;100.00;99499.09;6197698;23;20015;-82
2024/02/29 03:06:56;;;;;;;0.00;0.00;;;;;;;9.43;100.00;99484.91;6175416;23;20013;-82
2024/02/29 03:09:22;;;;;;;0.00;0.00;;;;;;;9.44;100.00;99481.09;6173414;23;20023;-83
2024/02/29 03:11:48;;;;;;;0.00;0.00;;;;;;;9.47;100.00;99480.50;6149834;23;20008;-83
2024/02/29 03:14:15;;;;;;;0.10;0.10;;;;;;;9.48;100.00;99471.25;6196731;23;20020;-81
2024/02/29 03:16:41;;;;;;;0.00;0.00;;;;;;;9.46;100.00;99470.69;6197209;22;20000;-78
2024/02/29 03:19:07;;;;;;;0.00;0.00;;;;;;;9.48;100.00;99454.88;6230723;23;20008;-80
2024/02/29 03:21:32;;;;;;;0.00;0.00;;;;;;;9.50;100.00;99471.75;6229110;23;20008;-79
2024/02/29 03:23:58;;;;;;;0.00;0.00;;;;;;;9.49;100.00;99450.22;6199761;23;20008;-79
2024/02/29 03:26:24;;;;;;;0.00;0.00;;;;;;;9.50;100.00;99451.84;6198264;23;20012;-80
2024/02/29 03:28:49;;;;;;;0.00;0.00;;;;;;;9.56;100.00;99446.09;6224908;23;20012;-78
2024/02/29 03:31:16;;;;;;;0.10;0.10;;;;;;;9.52;100.00;99434.09;6199665;23;20430;-79
2024/02/29 03:33:42;;;;;;;0.00;0.00;;;;;;;9.63;100.00;99439.50;6201043;23;19999;-76
2024/02/29 03:36:08;;;;;;;0.00;0.00;;;;;;;9.63;100.00;99447.69;6224098;23;20036;-78
2024/02/29 03:38:35;;;;;;;0.00;0.00;;;;;;;9.60;100.00;99425.28;6173236;23;20012;-80
2024/02/29 03:41:01;;;;;;;0.10;0.10;;;;;;;9.63;100.00;99423.13;6198318;23;20035;-78
2024/02/29 03:43:26;;;;;;;0.00;0.00;;;;;;;9.64;100.00;99413.81;6175640;23;20011;-79
2024/02/29 03:45:54;;;;;;;0.00;0.00;;;;;;;9.55;100.00;99417.16;6200206;23;20053;-80
2024/02/29 03:48:19;;;;;;;0.00;0.00;;;;;;;9.49;100.00;99422.91;6174944;23;20011;-79
2024/02/29 03:50:45;;;;;;;0.00;0.00;;;;;;;9.46;100.00;99404.38;6223584;23;19988;-79
2024/02/29 03:53:10;;;;;;;0.00;0.00;;;;;;;9.48;100.00;99404.94;6225434;23;20008;-78
2024/02/29 03:55:36;;;;;;;0.00;0.00;;;;;;;9.42;100.00;99391.31;6196947;23;19995;-78
2024/02/29 03:58:03;;;;;;;0.00;0.00;;;;;;;9.40;100.00;99401.72;6175089;23;20442;-78
2024/02/29 04:00:28;;;;;;;0.00;0.00;;;;;;;9.36;100.00;99397.06;6199316;23;20051;-78
2024/02/29 04:02:54;;;;;;;0.00;0.00;;;;;;;9.32;100.00;99401.50;6201321;23;20635;-79
2024/02/29 04:05:24;;;;;;;0.00;0.00;;;;;;;9.28;100.00;99394.97;6177437;23;20038;-78
2024/02/29 04:07:50;;;;;;;0.00;0.00;;;;;;;9.25;100.00;99391.69;6227820;23;20008;-77
2024/02/29 04:10:16;;;;;;;0.00;0.00;;;;;;;9.23;100.00;99388.44;6227872;23;20000;-78
2024/02/29 04:12:42;;;;;;;0.00;0.00;;;;;;;9.23;100.00;99399.34;6254239;23;20000;-79
2024/02/29 04:15:08;;;;;;;0.00;0.00;;;;;;;9.19;100.00;99386.56;6257114;23;20000;-79
2024/02/29 04:17:33;;;;;;;0.00;0.00;;;;;;;9.16;100.00;99374.31;6207982;23;20048;-79
2024/02/29 04:19:59;;;;;;;0.00;0.00;;;;;;;9.16;100.00;99377.03;6199327;23;20008;-79
2024/02/29 04:22:24;;;;;;;0.00;0.00;;;;;;;9.10;100.00;99369.97;6172985;23;20008;-79
2024/02/29 04:24:50;;;;;;;0.00;0.00;;;;;;;9.19;100.00;99371.00;6198870;23;20100;-79
2024/02/29 04:27:16;;;;;;;0.00;0.00;;;;;;;9.16;100.00;99366.13;6199910;23;20034;-79
2024/02/29 04:29:44;;;;;;;0.00;0.00;;;;;;;9.11;100.00;99362.59;6226036;23;20697;-79
2024/02/29 04:32:09;;;;;;;0.00;0.00;;;;;;;9.07;100.00;99351.47;6201834;23;19999;-80
2024/02/29 04:34:35;;;;;;;0.00;0.00;;;;;;;9.09;100.00;99355.50;6223557;23;19984;-79
2024/02/29 04:37:00;;;;;;;0.00;0.00;;;;;;;9.14;100.00;99351.97;6200893;23;20000;-78
2024/02/29 04:39:26;;;;;;;0.00;0.00;;;;;;;9.08;100.00;99345.72;6203076;23;20008;-78
2024/02/29 04:41:51;;;;;;;0.00;0.00;;;;;;;9.11;100.00;99357.94;6247650;23;20070;-78
2024/02/29 04:44:18;;;;;;;0.00;0.00;;;;;;;9.15;100.00;99356.28;6202238;23;20422;-80
2024/02/29 04:46:43;;;;;;;0.00;0.00;;;;;;;9.16;100.00;99344.28;6170799;23;20008;-78
2024/02/29 04:49:11;;;;;;;0.00;0.00;;;;;;;9.20;100.00;99339.06;6201300;23;20800;-79
2024/02/29 04:51:36;;;;;;;0.10;0.10;;;;;;;9.17;100.00;99351.38;6225626;23;20056;-80
2024/02/29 04:54:02;;;;;;;0.10;0.10;;;;;;;9.15;100.00;99329.03;6203360;23;20008;-78
2024/02/29 04:56:28;;;;;;;0.00;0.00;;;;;;;9.21;100.00;99330.63;6229836;23;20310;-77
2024/02/29 04:58:54;;;;;;;0.10;0.10;;;;;;;9.16;100.00;99317.03;6202938;23;19992;-81
2024/02/29 05:01:19;;;;;;;0.10;0.10;;;;;;;9.06;100.00;99301.53;6224756;23;20008;-80
2024/02/29 05:03:45;;;;;;;0.00;0.00;;;;;;;9.22;100.00;99326.78;6223315;23;20138;-82
2024/02/29 05:06:16;;;;;;;0.00;0.00;;;;;;;9.16;100.00;99303.38;6176062;23;20090;-82
2024/02/29 05:08:42;;;;;;;0.00;0.00;;;;;;;9.24;100.00;99305.53;6222725;23;19996;-81
2024/02/29 05:11:08;;;;;;;0.00;0.00;;;;;;;9.23;100.00;99305.81;6200398;23;20028;-81
2024/02/29 05:13:34;;;;;;;0.00;0.00;;;;;;;9.22;100.00;99299.50;6174499;23;20552;-82
2024/02/29 05:16:03;;;;;;;0.00;0.00;;;;;;;9.18;100.00;99284.00;6200166;23;20016;-82
2024/02/29 05:18:28;;;;;;;0.00;0.00;;;;;;;9.28;100.00;99304.94;6224369;22;20000;-80
2024/02/29 05:20:54;;;;;;;0.00;0.00;;;;;;;9.23;100.00;99287.50;6224613;23;20390;-80
2024/02/29 05:23:29;;;;;;;;;;;;;;;;;;;;;
2024/02/29 05:25:58;;;;;;;0.00;0.00;;;;;;;9.32;100.00;99292.38;6249761;23;20035;-80
2024/02/29 05:28:23;;;;;;;0.00;0.00;;;;;;;9.31;100.00;99279.81;6200419;23;20076;-81
2024/02/29 05:30:51;;;;;;;0.00;0.00;;;;;;;9.26;100.00;99278.75;6198851;23;19992;-81
2024/02/29 05:33:16;;;;;;;0.00;0.00;;;;;;;9.26;100.00;99273.28;6200631;23;20066;-80
2024/02/29 05:35:48;;;;;;;0.00;0.00;;;;;;;9.23;100.00;99262.97;6175427;23;20000;-81
2024/02/29 05:38:13;;;;;;;0.00;0.00;;;;;;;9.19;100.00;99256.44;6252527;23;20000;-80
2024/02/29 05:40:42;;;;;;;0.00;0.00;;;;;;;9.22;100.00;99258.59;6200328;23;20015;-80
2024/02/29 05:43:08;;;;;;;0.00;0.00;;;;;;;9.33;100.00;99263.97;6200534;23;20477;-78
2024/02/29 05:45:33;;;;;;;0.00;0.00;;;;;;;9.40;100.00;99268.00;6201116;23;20008;-78
2024/02/29 05:47:59;;;;;;;0.00;0.00;;;;;;;9.38;100.00;99253.81;6223686;23;20011;-81
2024/02/29 05:50:25;;;;;;;0.00;0.00;;;;;;;9.43;100.00;99256.53;6198749;23;19992;-78
2024/02/29 05:52:52;;;;;;;0.00;0.00;;;;;;;9.26;100.00;99226.91;6250581;23;20019;-78
2024/02/29 05:55:17;;;;;;;0.00;0.00;;;;;;;9.47;100.00;99250.50;6198595;23;20203;-80
2024/02/29 05:57:43;;;;;;;0.00;0.00;;;;;;;9.42;100.00;99240.44;6173907;23;20095;-79
2024/02/29 06:00:11;;;;;;;0.10;0.10;;;;;;;9.43;100.00;99234.69;6199528;23;20011;-79
2024/02/29 06:02:37;;;;;;;0.00;0.00;;;;;;;9.48;100.00;99239.28;6201579;23;20039;-80
2024/02/29 06:05:04;;;;;;;0.00;0.00;;;;;;;9.44;100.00;99224.59;6173830;23;20008;-79
2024/02/29 06:07:30;;;;;;;0.00;0.00;;;;;;;9.48;100.00;99231.09;6201717;23;20442;-79
2024/02/29 06:09:57;;;;;;;0.00;0.00;;;;;;;9.48;100.00;99228.38;6225904;23;20004;-80
2024/02/29 06:12:30;;;;;;;0.00;0.00;;;;;;;9.44;100.00;99219.13;6203594;23;20057;-80
2024/02/29 06:14:56;;;;;;;0.10;0.10;;;;;;;9.41;100.00;99214.25;6229115;23;20027;-81
2024/02/29 06:17:22;;;;;;;0.00;0.00;;;;;;;9.44;100.00;99219.13;6229275;23;20526;-82
2024/02/29 06:19:48;;;;;;;0.00;0.00;;;;;;;9.43;100.00;99212.03;6205734;23;20004;-81
2024/02/29 06:22:14;;;;;;;0.00;0.00;;;;;;;9.48;100.00;99220.19;6179551;22;19992;-80
2024/02/29 06:24:39;;;;;;;0.00;0.00;;;;;;;9.48;100.00;99209.25;6255472;23;20004;-81
2024/02/29 06:27:05;;;;;;;0.00;0.00;;;;;;;9.50;100.00;99215.22;6209752;23;20100;-82
2024/02/29 06:29:30;;;;;;;0.00;0.00;;;;;;;9.49;100.00;99199.97;6226886;23;20016;-81
2024/02/29 06:32:04;;;;;;;0.00;0.00;;;;;;;9.37;100.00;99183.19;6226195;23;20328;-80
2024/02/29 06:34:29;;;;;;;0.00;0.00;;;;;;;9.38;100.00;99176.63;6200694;23;20004;-78
2024/02/29 06:36:55;;;;;;;0.00;0.00;;;;;;;9.53;100.00;99198.28;6173421;23;20012;-79
2024/02/29 06:39:30;;;;;;;0.00;0.00;;;;;;;9.51;100.00;99188.78;6226247;23;19992;-79
2024/02/29 06:41:58;;;;;;;0.00;0.00;;;;;;;9.56;100.00;99200.47;6252925;23;20000;-78
2024/02/29 06:44:27;;;;;;;0.00;0.00;;;;;;;9.48;100.00;99181.97;6199836;23;20095;-81
2024/02/29 06:46:52;;;;;;;0.00;0.00;;;;;;;9.49;100.00;99194.53;6251483;23;20083;-80
2024/02/29 06:49:22;;;;;;;0.10;0.10;;;;;;;9.42;100.00;99194.84;6200990;23;20089;-79
2024/02/29 06:51:48;;;;;;;0.00;0.00;;;;;;;9.34;100.00;99209.09;6224483;23;20007;-80
2024/02/29 06:54:14;;;;;;;0.10;0.10;;;;;;;9.16;100.00;99196.22;6200618;23;20000;-81
2024/02/29 06:56:43;;;;;;;0.00;0.00;;;;;;;9.18;100.00;99211.16;6227067;23;20452;-78
2024/02/29 06:59:09;;;;;;;0.00;0.00;;;;;;;9.05;100.00;99190.00;6223539;23;20001;-80
2024/02/29 07:01:54;;;;;;;0.00;0.00;;;;;;;9.14;100.00;99220.22;6225036;23;20023;-80
2024/02/29 07:04:23;;;;;;;0.00;0.00;;;;;;;9.13;100.00;99219.41;6226161;23;20012;-79
2024/02/29 07:06:49;;;;;;;0.00;0.00;;;;;;;9.02;100.00;99212.41;6222678;23;20027;-76
2024/02/29 07:09:14;;;;;;;0.00;0.00;;;;;;;8.90;100.00;99205.41;6196258;23;20342;-75
2024/02/29 07:11:40;;;;;;;0.10;0.10;;;;;;;8.90;100.00;99208.13;6246410;23;20052;-76
2024/02/29 07:14:06;;;;;;;0.00;0.00;;;;;;;8.94;100.00;99216.56;6220267;23;20008;-75
2024/02/29 07:16:38;;;;;;;0.00;0.00;;;;;;;8.93;100.00;99225.03;6195146;23;20340;-73
2024/02/29 07:19:07;;;;;;;0.00;0.00;;;;;;;8.89;100.00;99211.97;6220359;23;20020;-74
2024/02/29 07:21:35;;;;;;;0.00;0.00;;;;;;;8.86;100.00;99219.88;6193821;23;20099;-73
2024/02/29 07:24:02;;;;;;;0.00;0.00;;;;;;;8.87;100.00;99230.50;6221778;23;20174;-76
2024/02/29 07:26:31;;;;;;;0.00;0.00;;;;;;;8.91;100.00;99236.22;6196485;23;20004;-76
2024/02/29 07:28:59;;;;;;;0.00;0.00;;;;;;;8.78;100.00;99217.78;6221108;23;20397;-74
2024/02/29 07:31:25;;;;;;;0.00;0.00;;;;;;;8.78;100.00;99213.13;6196954;23;20019;-74
2024/02/29 07:33:50;;;;;;;0.00;0.00;;;;;;;8.87;100.00;99233.22;6221073;23;20058;-74
2024/02/29 07:36:16;;;;;;;0.00;0.00;;;;;;;8.77;100.00;99221.59;6250542;23;20004;-74
2024/02/29 07:38:42;;;;;;;0.00;0.00;;;;;;;8.73;100.00;99218.59;6196580;23;20027;-75
2024/02/29 07:41:20;;;;;;;0.00;0.00;;;;;;;8.68;100.00;99213.22;6227024;23;20070;-75
2024/02/29 07:43:45;;;;;;;0.00;0.00;;;;;;;8.49;100.00;99215.78;6248130;22;19996;-75
2024/02/29 07:46:13;;;;;;;0.10;0.10;;;;;;;8.41;100.00;99217.16;6172922;23;20006;-74
2024/02/29 07:48:38;;;;;;;0.00;0.00;;;;;;;8.34;100.00;99217.47;6197756;23;20319;-77
2024/02/29 07:51:04;;;;;;;0.00;0.00;;;;;;;8.26;100.00;99228.13;6173962;23;20015;-75
2024/02/29 07:53:29;;;;;;;0.00;0.00;;;;;;;8.10;100.00;99230.91;6247154;23;20038;-74
2024/02/29 07:55:55;;;;;;;0.00;0.00;;;;;;;8.07;100.00;99242.34;6198408;23;20008;-73
2024/02/29 07:58:21;;;;;;;0.00;0.00;;;;;;;7.90;100.00;99225.53;6221860;23;20012;-74
2024/02/29 08:00:46;;;;;;;0.10;0.10;;;;;;;7.89;100.00;99223.94;6170550;23;20012;-73
2024/02/29 08:03:24;;;;;;;0.00;0.00;;;;;;;7.88;100.00;99212.22;6221654;23;20016;-77
2024/02/29 08:05:50;;;;;;;0.10;0.10;;;;;;;8.02;100.00;99217.88;6196710;23;20012;-75
2024/02/29 08:08:15;;;;;;;0.00;0.00;;;;;;;8.12;100.00;99211.56;6171317;23;20445;-73
2024/02/29 08:10:40;;;;;;;0.00;0.00;;;;;;;8.17;100.00;99212.34;6168309;23;20011;-72
2024/02/29 08:13:06;;;;;;;0.10;0.10;;;;;;;8.18;100.00;99211.28;6194322;23;20034;-72
2024/02/29 08:15:31;;;;;;;0.10;0.10;;;;;;;8.21;100.00;99220.81;6215101;23;20250;-73
2024/02/29 08:17:58;;;;;;;0.10;0.10;;;;;;;8.20;100.00;99211.00;6197114;23;20124;-72
2024/02/29 08:20:25;;;;;;;0.00;0.00;;;;;;;8.20;100.00;99208.28;6195578;23;20072;-73
2024/02/29 08:22:54;;;;;;;0.10;0.10;;;;;;;8.24;100.00;99219.44;6195230;23;20467;-73
2024/02/29 08:25:30;;;;;;;0.00;0.00;;;;;;;8.30;100.00;99207.41;6219996;23;20055;-73
2024/02/29 08:27:58;;;;;;;0.00;0.00;;;;;;;8.38;100.00;99209.53;6217890;23;20012;-73
2024/02/29 08:30:23;;;;;;;0.00;0.00;;;;;;;8.42;100.00;99204.34;6194957;23;20012;-73
2024/02/29 08:32:49;;;;;;;0.00;0.00;;;;;;;8.42;100.00;99216.06;6194741;23;20414;-74
2024/02/29 08:35:16;;;;;;;0.00;0.00;;;;;;;8.37;100.00;99221.53;6219644;23;20054;-73
2024/02/29 08:37:46;;;;;;;0.10;0.10;;;;;;;8.30;100.00;99205.50;6221075;23;20327;-73
2024/02/29 08:40:11;;;;;;;0.00;0.00;;;;;;;8.36;100.00;99211.72;6218856;23;20514;-72
2024/02/29 08:42:37;;;;;;;0.00;0.00;;;;;;;8.43;100.00;99206.78;6220675;23;20046;-72
2024/02/29 08:45:05;;;;;;;0.00;0.00;;;;;;;8.52;100.00;99204.31;6219846;23;20083;-73
2024/02/29 08:47:31;;;;;;;0.00;0.00;;;;;;;8.62;100.00;99203.44;6219009;23;20012;-73
2024/02/29 08:49:56;;;;;;;0.00;0.00;;;;;;;8.78;100.00;99218.59;6219838;23;20578;-72
2024/02/29 08:52:22;;;;;;;0.10;0.10;;;;;;;8.85;100.00;99210.91;6218890;23;20010;-73
2024/02/29 08:54:47;;;;;;;0.00;0.00;;;;;;;8.80;100.00;99210.13;6221582;23;20140;-73
2024/02/29 08:57:13;;;;;;;0.00;0.00;;;;;;;9.00;100.00;99212.69;6218918;23;20343;-72
2024/02/29 08:59:38;;;;;;;0.00;0.00;;;;;;;9.07;100.00;99215.09;6193779;23;20004;-72
2024/02/29 09:02:05;;;;;;;0.00;0.00;;;;;;;9.14;100.00;99199.22;6193895;23;20016;-72
2024/02/29 09:04:31;;;;;;;0.00;0.00;;;;;;;9.31;100.00;99217.06;6217827;23;20092;-72
2024/02/29 09:06:56;;;;;;;0.00;0.00;;;;;;;9.23;100.00;99227.50;6167973;23;20003;-72
2024/02/29 09:09:22;;;;;;;0.00;0.00;;;;;;;9.23;100.00;99241.13;6218975;23;20453;-72
2024/02/29 09:11:47;;;;;;;0.00;0.00;;;;;;;9.24;100.00;99233.75;6245319;23;20000;-73
2024/02/29 09:14:13;;;;;;;0.00;0.00;;;;;;;9.29;100.00;99232.91;6167300;23;20004;-73
2024/02/29 09:16:39;;;;;;;0.10;0.10;;;;;;;9.34;100.00;99241.03;6193750;23;20008;-73
2024/02/29 09:19:04;;;;;;;0.00;0.00;;;;;;;9.37;100.00;99240.47;6192464;23;20695;-73
2024/02/29 09:21:30;;;;;;;0.00;0.00;;;;;;;9.40;100.00;99234.44;6169616;23;20414;-72
2024/02/29 09:23:55;;;;;;;0.00;0.00;;;;;;;9.42;100.00;99216.69;6216780;23;20012;-75
2024/02/29 09:26:20;;;;;;;0.10;0.10;;;;;;;9.66;100.00;99221.34;6169377;23;20008;-72
2024/02/29 09:28:47;;;;;;;0.00;0.00;;;;;;;10.02;100.00;99212.75;6243688;23;20014;-73
2024/02/29 09:31:13;;;;;;;0.00;0.00;;;;;;;10.25;100.00;99205.66;6217388;23;20086;-72
2024/02/29 09:33:40;;;;;;;0.00;0.00;;;;;;;10.56;100.00;99198.97;6218105;23;20011;-72
2024/02/29 09:36:11;;;;;;;0.00;0.00;;;;;;;10.64;100.00;99206.50;6218046;23;20015;-72
2024/02/29 09:38:37;;;;;;;0.00;0.00;;;;;;;10.59;100.00;99199.19;6216462;23;20011;-73
2024/02/29 09:41:04;;;;;;;0.00;0.00;;;;;;;10.86;100.00;99192.19;6219872;23;20466;-72
2024/02/29 09:43:31;;;;;;;0.10;0.10;;;;;;;11.34;100.00;99180.19;6218138;23;20007;-73
2024/02/29 09:46:02;;;;;;;0.10;0.10;;;;;;;11.93;100.00;99185.09;6191940;23;20346;-73
2024/02/29 09:48:29;;;;;;;0.10;0.10;;;;;;;12.27;100.00;99168.22;6217800;23;20054;-73
2024/02/29 09:51:05;;;;;;;0.00;0.00;;;;;;;12.41;100.00;99179.16;6193323;23;20015;-73
2024/02/29 09:53:34;;;;;;;0.00;0.00;;;;;;;12.47;100.00;99172.44;6217524;23;20470;-72
2024/02/29 09:56:02;;;;;;;0.00;0.00;;;;;;;12.39;100.00;99173.97;6218444;23;20048;-71
2024/02/29 09:58:29;;;;;;;0.10;0.10;;;;;;;12.19;100.00;99172.50;6216419;23;20008;-73
2024/02/29 10:00:55;;;;;;;0.10;0.10;;;;;;;11.82;100.00;99157.09;6218613;23;20090;-73
2024/02/29 10:03:21;;;;;;;0.00;0.00;;;;;;;11.58;100.00;99147.16;6193758;23;20012;-73
2024/02/29 10:05:48;;;;;;;0.00;0.00;;;;;;;11.38;100.00;99142.09;6192028;23;20316;-74
2024/02/29 10:08:14;;;;;;;0.00;0.00;;;;;;;11.20;100.00;99128.19;6244341;23;20004;-73
2024/02/29 10:10:39;;;;;;;0.00;0.00;;;;;;;11.08;100.00;99116.91;6243709;23;19996;-72
2024/02/29 10:13:10;;;;;;;0.03;0.03;;;;;;;11.05;100.00;99131.97;6193374;23;20019;-71
2024/02/29 10:15:36;;;;;;;0.10;0.10;;;;;;;10.97;100.00;99141.69;6216753;23;20028;-72
2024/02/29 10:18:02;;;;;;;0.00;0.00;;;;;;;10.85;100.00;99135.91;6188046;23;20071;-73
2024/02/29 10:20:28;;;;;;;0.00;0.00;;;;;;;10.86;100.00;99136.69;6212018;23;20005;-72
2024/02/29 10:22:54;;;;;;;0.00;0.00;;;;;;;10.87;100.00;99144.59;6219024;23;20019;-72
2024/02/29 10:25:21;;;;;;;0.05;0.05;;;;;;;10.89;100.00;99145.09;6245518;23;20427;-71
2024/02/29 10:27:47;;;;;;;0.00;0.00;;;;;;;10.98;100.00;99145.22;6192071;23;20028;-73
2024/02/29 10:30:13;;;;;;;0.00;0.00;;;;;;;11.08;100.00;99156.03;6218573;23;20015;-72
2024/02/29 10:32:40;;;;;;;0.00;0.00;;;;;;;11.14;100.00;99138.41;6191740;23;20374;-72
2024/02/29 10:35:18;;;;;;;0.00;0.00;;;;;;;11.42;100.00;99138.44;6246593;22;20075;-72
2024/02/29 10:37:54;;;;;;;0.10;0.10;;;;;;;11.64;100.00;99140.47;6219188;23;20056;-72
2024/02/29 10:40:26;;;;;;;0.00;0.00;;;;;;;11.80;100.00;99142.91;6213583;23;19984;-72
2024/02/29 10:42:58;;;;;;;0.00;0.00;;;;;;;11.70;100.00;99139.25;6245442;23;20031;-74
2024/02/29 10:45:25;;;;;;;0.00;0.00;;;;;;;11.46;100.00;99112.09;6217089;23;20000;-72
2024/02/29 10:48:00;;;;;;;0.00;0.00;;;;;;;11.56;100.00;99141.16;6218565;23;20004;-73
2024/02/29 10:50:26;;;;;;;0.00;0.00;;;;;;;11.51;100.00;99130.34;6216751;23;20007;-73
2024/02/29 10:53:30;;;;;;;0.00;0.00;;;;;;;11.65;100.00;99131.16;6218354;23;20008;-70
2024/02/29 10:56:21;;;;;;;0.10;0.10;;;;;;;11.52;100.00;99130.03;6185959;23;20008;-72
2024/02/29 10:59:01;;;;;;;0.00;0.00;;;;;;;11.34;100.00;99130.91;6216959;23;20036;-73
2024/02/29 11:01:26;;;;;;;0.00;0.00;;;;;;;11.11;100.00;99135.44;6217556;23;20103;-71
2024/02/29 11:03:53;;;;;;;0.00;0.00;;;;;;;11.15;100.00;99122.78;6191600;23;20077;-72
2024/02/29 11:06:19;;;;;;;0.10;0.10;;;;;;;11.27;100.00;99123.13;6168007;23;20717;-72
2024/02/29 11:08:44;;;;;;;0.00;0.00;;;;;;;11.25;100.00;99128.06;6191283;23;20350;-72
2024/02/29 11:11:14;;;;;;;0.00;0.00;;;;;;;11.26;100.00;99135.19;6168893;23;20012;-73
2024/02/29 11:13:41;;;;;;;0.00;0.00;;;;;;;10.97;100.00;99136.22;6218011;23;20042;-71
2024/02/29 11:16:12;;;;;;;0.05;0.05;;;;;;;10.83;100.00;99140.84;6192601;23;20009;-73
2024/02/29 11:18:38;;;;;;;0.00;0.00;;;;;;;10.68;100.00;99144.66;6193243;23;20020;-73
2024/02/29 11:21:07;;;;;;;0.00;0.00;;;;;;;10.57;100.00;99146.75;6191441;23;20012;-74
2024/02/29 11:23:39;;;;;;;0.00;0.00;;;;;;;10.40;100.00;99146.47;6217350;23;20011;-72
2024/02/29 11:26:08;;;;;;;0.00;0.00;;;;;;;10.29;100.00;99143.84;6191787;23;20016;-73
2024/02/29 11:28:38;;;;;;;0.00;0.00;;;;;;;10.03;100.00;99137.09;6191015;23;20008;-73
2024/02/29 11:31:16;;;;;;;0.00;0.00;;;;;;;9.81;100.00;99134.91;6217398;23;20012;-72
2024/02/29 11:33:43;;;;;;;0.00;0.00;;;;;;;9.75;100.00;99131.44;6192760;23;20012;-71